createdAt,value
2018-03-26T00:00:14.476Z,23.43
2018-03-26T00:02:42.837Z,25.10
2018-03-26T00:05:10.464Z,21.40
2018-03-26T00:07:38.062Z,22.27
2018-03-26T00:10:05.656Z,26.00
2018-03-26T00:12:33.282Z,23.67
2018-03-26T00:15:00.882Z,30.03
2018-03-26T00:17:28.519Z,21.77
2018-03-26T00:19:57.001Z,28.00
2018-03-26T00:22:25.397Z,22.57
2018-03-26T00:24:53.767Z,26.17
2018-03-26T00:27:22.119Z,21.03
2018-03-26T00:29:49.753Z,29.80
2018-03-26T00:32:17.340Z,24.70
2018-03-26T00:34:44.995Z,26.00
2018-03-26T00:37:12.593Z,23.40
2018-03-26T00:39:40.213Z,23.27
2018-03-26T00:42:07.854Z,28.00
2018-03-26T00:44:35.457Z,21.77
2018-03-26T00:47:03.100Z,19.47
2018-03-26T00:49:30.692Z,21.90
2018-03-26T00:51:59.055Z,24.37
2018-03-26T00:54:26.697Z,25.10
2018-03-26T00:56:54.338Z,27.37
2018-03-26T00:59:21.924Z,20.87
2018-03-26T01:01:49.560Z,22.30
2018-03-26T01:04:17.164Z,23.10
2018-03-26T01:06:44.790Z,19.67
2018-03-26T01:09:12.386Z,24.37
2018-03-26T01:11:40.008Z,21.80
2018-03-26T01:14:07.604Z,19.90
2018-03-26T01:16:35.976Z,26.70
2018-03-26T01:19:03.616Z,21.90
2018-03-26T01:21:31.206Z,21.60
2018-03-26T01:23:58.804Z,27.17
2018-03-26T01:26:26.424Z,23.43
2018-03-26T01:28:55.522Z,19.90
2018-03-26T01:31:23.908Z,24.77
2018-03-26T01:33:52.282Z,20.20
2018-03-26T01:36:19.904Z,19.60
2018-03-26T01:38:47.495Z,24.47
2018-03-26T01:41:15.121Z,23.53
2018-03-26T01:43:42.708Z,20.30
2018-03-26T01:46:10.337Z,21.90
2018-03-26T01:48:37.931Z,17.53
2018-03-26T01:51:05.562Z,20.43
2018-03-26T01:53:33.154Z,19.37
2018-03-26T01:56:00.782Z,24.07
2018-03-26T01:58:28.376Z,21.73
2018-03-26T02:00:56.000Z,22.60
2018-03-26T02:03:23.601Z,18.47
2018-03-26T02:05:51.225Z,18.33
2018-03-26T02:08:18.821Z,20.13
2018-03-26T02:10:46.450Z,28.03
2018-03-26T02:13:14.044Z,16.83
2018-03-26T02:15:41.668Z,25.20
2018-03-26T02:18:09.265Z,26.43
2018-03-26T02:20:36.893Z,27.47
2018-03-26T02:23:04.534Z,24.40
2018-03-26T02:25:32.161Z,21.03
2018-03-26T02:27:59.756Z,20.83
2018-03-26T02:30:27.376Z,20.37
2018-03-26T02:32:55.732Z,24.83
2018-03-26T02:35:23.352Z,22.27
2018-03-26T02:37:50.948Z,25.87
2018-03-26T02:40:18.579Z,26.37
2018-03-26T02:42:46.184Z,25.40
2018-03-26T02:45:13.817Z,18.80
2018-03-26T02:47:41.410Z,26.83
2018-03-26T02:50:09.007Z,28.80
2018-03-26T02:52:37.388Z,29.60
2018-03-26T02:55:04.989Z,26.80
2018-03-26T02:57:32.612Z,27.13
2018-03-26T03:00:00.209Z,30.60
2018-03-26T03:02:27.832Z,24.80
2018-03-26T03:04:55.428Z,27.20
2018-03-26T03:07:23.053Z,27.73
2018-03-26T03:09:50.654Z,27.37
2018-03-26T03:12:18.277Z,23.20
2018-03-26T03:14:45.873Z,28.87
2018-03-26T03:17:13.496Z,30.67
2018-03-26T03:19:41.089Z,27.70
2018-03-26T03:22:08.710Z,32.90
2018-03-26T03:24:37.074Z,26.47
2018-03-26T03:27:05.469Z,28.37
2018-03-26T03:29:33.833Z,33.00
2018-03-26T03:32:02.228Z,33.10
2018-03-26T03:34:29.848Z,33.97
2018-03-26T03:36:57.476Z,33.30
2018-03-26T03:39:25.081Z,28.37
2018-03-26T03:41:52.720Z,36.57
2018-03-26T03:44:20.325Z,34.23
2018-03-26T03:46:48.712Z,35.13
2018-03-26T03:49:17.072Z,29.30
2018-03-26T03:51:44.700Z,37.87
2018-03-26T03:54:12.300Z,39.17
2018-03-26T03:56:40.704Z,42.67
2018-03-26T03:59:08.393Z,41.50
2018-03-26T04:01:35.983Z,40.67
2018-03-26T04:04:03.626Z,43.93
2018-03-26T04:06:31.234Z,38.07
2018-03-26T04:08:59.620Z,44.37
2018-03-26T04:11:27.233Z,41.90
2018-03-26T04:13:54.867Z,41.40
2018-03-26T04:16:22.468Z,39.10
2018-03-26T04:18:50.065Z,34.47
2018-03-26T04:21:17.693Z,38.50
2018-03-26T04:23:46.066Z,35.70
2018-03-26T04:26:13.712Z,35.00
2018-03-26T04:28:41.308Z,32.40
2018-03-26T04:31:09.792Z,36.50
2018-03-26T04:33:38.175Z,25.83
2018-03-26T04:36:06.539Z,26.10
2018-03-26T04:38:34.926Z,37.83
2018-03-26T04:41:03.284Z,30.43
2018-03-26T04:43:30.911Z,29.10
2018-03-26T04:45:58.505Z,30.97
2018-03-26T04:48:26.131Z,30.23
2018-03-26T04:50:53.728Z,31.10
2018-03-26T04:53:21.358Z,30.90
2018-03-26T04:55:48.987Z,28.57
2018-03-26T04:58:17.328Z,29.77
2018-03-26T05:00:44.948Z,29.30
2018-03-26T05:03:12.546Z,30.60
2018-03-26T05:05:40.177Z,30.07
2018-03-26T05:08:07.772Z,29.80
2018-03-26T05:10:36.151Z,29.80
2018-03-26T05:13:03.743Z,27.90
2018-03-26T05:15:32.133Z,32.53
2018-03-26T05:17:59.732Z,27.00
2018-03-26T05:20:27.353Z,20.37
2018-03-26T05:22:54.948Z,29.67
2018-03-26T05:25:22.572Z,25.30
2018-03-26T05:27:50.182Z,29.30
2018-03-26T05:30:17.801Z,26.90
2018-03-26T05:32:45.405Z,28.27
2018-03-26T05:35:13.032Z,26.07
2018-03-26T05:37:40.630Z,28.03
2018-03-26T05:40:09.243Z,24.83
2018-03-26T05:42:37.605Z,27.97
2018-03-26T05:45:05.240Z,24.10
2018-03-26T05:47:32.836Z,26.00
2018-03-26T05:50:01.242Z,22.10
2018-03-26T05:52:28.839Z,25.70
2018-03-26T05:54:56.591Z,27.87
2018-03-26T05:57:26.389Z,25.10
2018-03-26T05:59:54.021Z,28.07
2018-03-26T06:02:22.390Z,23.07
2018-03-26T06:04:50.755Z,18.90
2018-03-26T06:07:18.378Z,21.07
2018-03-26T06:09:45.974Z,20.13
2018-03-26T06:12:13.600Z,20.70
2018-03-26T06:14:41.200Z,23.23
2018-03-26T06:17:16.335Z,23.40
2018-03-26T06:19:43.932Z,23.17
2018-03-26T06:22:11.552Z,23.77
2018-03-26T06:24:39.152Z,21.70
2018-03-26T06:27:06.774Z,23.10
2018-03-26T06:29:34.368Z,19.87
2018-03-26T06:32:02.765Z,17.00
2018-03-26T06:34:30.360Z,18.87
2018-03-26T06:39:57.635Z,17.43
2018-03-26T06:42:25.261Z,19.93
2018-03-26T06:44:52.848Z,19.90
2018-03-26T06:47:20.480Z,15.77
2018-03-26T06:49:48.097Z,17.23
2018-03-26T06:52:16.497Z,17.10
2018-03-26T06:54:44.875Z,19.07
2018-03-26T06:57:13.269Z,18.90
2018-03-26T06:59:40.872Z,15.57
2018-03-26T07:02:08.499Z,15.77
2018-03-26T07:04:36.141Z,17.03
2018-03-26T07:07:04.510Z,18.70
2018-03-26T07:09:32.956Z,17.97
2018-03-26T07:12:00.568Z,16.93
2018-03-26T07:14:28.220Z,18.37
2018-03-26T07:16:56.575Z,20.40
2018-03-26T07:19:25.015Z,19.80
2018-03-26T07:21:52.618Z,18.20
2018-03-26T07:24:20.236Z,14.63
2018-03-26T07:26:47.836Z,16.13
2018-03-26T07:29:15.454Z,12.20
2018-03-26T07:31:43.039Z,13.43
2018-03-26T07:34:11.463Z,11.20
2018-03-26T07:36:39.825Z,10.10
2018-03-26T07:39:07.449Z,11.83
2018-03-26T07:41:35.039Z,9.43
2018-03-26T07:44:02.673Z,12.17
2018-03-26T07:46:30.268Z,14.43
2018-03-26T07:48:57.888Z,13.33
2018-03-26T07:51:25.560Z,11.27
2018-03-26T07:53:53.185Z,9.37
2018-03-26T07:56:20.882Z,10.40
2018-03-26T07:58:48.495Z,9.70
2018-03-26T08:01:16.853Z,10.13
2018-03-26T08:03:45.248Z,10.10
2018-03-26T08:06:13.604Z,9.90
2018-03-26T08:08:41.273Z,10.40
2018-03-26T08:11:08.892Z,9.90
2018-03-26T08:13:36.488Z,10.53
2018-03-26T08:16:04.125Z,8.57
2018-03-26T08:18:31.763Z,10.07
2018-03-26T08:20:59.364Z,8.93
2018-03-26T08:23:26.989Z,8.23
2018-03-26T08:25:54.588Z,9.77
2018-03-26T08:28:22.200Z,9.30
2018-03-26T08:30:49.840Z,10.43
2018-03-26T08:33:18.202Z,10.43
2018-03-26T08:35:46.605Z,11.73
2018-03-26T08:38:14.196Z,10.93
2018-03-26T08:40:41.828Z,9.97
2018-03-26T08:43:09.416Z,10.47
2018-03-26T08:45:37.042Z,10.63
2018-03-26T08:48:05.399Z,9.53
2018-03-26T08:50:33.802Z,10.03
2018-03-26T08:53:01.420Z,9.90
2018-03-26T08:55:29.040Z,9.00
2018-03-26T08:57:56.636Z,7.77
2018-03-26T09:00:24.264Z,8.60
2018-03-26T09:02:51.865Z,7.47
2018-03-26T09:05:20.290Z,7.30
2018-03-26T09:07:48.102Z,7.57
2018-03-26T09:10:15.923Z,8.07
2018-03-26T09:12:43.839Z,7.87
2018-03-26T09:15:11.705Z,7.20
2018-03-26T09:17:41.106Z,6.63
2018-03-26T09:20:08.974Z,6.30
2018-03-26T09:22:36.940Z,6.77
2018-03-26T09:25:04.803Z,6.43
2018-03-26T09:27:32.674Z,6.00
2018-03-26T09:30:00.542Z,6.33
2018-03-26T09:32:28.408Z,7.20
2018-03-26T09:34:56.276Z,5.87
2018-03-26T09:37:24.453Z,6.43
2018-03-26T09:39:53.037Z,6.40
2018-03-26T09:42:20.897Z,5.53
2018-03-26T09:44:48.663Z,7.10
2018-03-26T09:47:16.629Z,8.83
2018-03-26T09:49:44.392Z,6.47
2018-03-26T09:52:12.016Z,6.97
2018-03-26T09:54:39.672Z,7.27
2018-03-26T09:57:07.305Z,6.87
2018-03-26T09:59:34.892Z,6.70
2018-03-26T10:02:02.504Z,7.10
2018-03-26T10:04:30.137Z,7.40
2018-03-26T10:06:57.932Z,6.50
2018-03-26T10:09:25.533Z,6.27
2018-03-26T10:11:53.212Z,6.30
2018-03-26T10:14:20.826Z,5.60
2018-03-26T10:16:48.434Z,6.00
2018-03-26T10:19:16.118Z,4.27
2018-03-26T10:21:43.740Z,4.30
2018-03-26T10:24:12.100Z,5.00
2018-03-26T10:26:39.732Z,4.67
2018-03-26T10:29:07.320Z,4.00
2018-03-26T10:31:34.931Z,3.77
2018-03-26T10:34:03.213Z,3.40
2018-03-26T10:36:31.012Z,3.07
2018-03-26T10:38:58.603Z,3.07
2018-03-26T10:41:26.986Z,3.00
2018-03-26T10:43:54.584Z,3.47
2018-03-26T10:46:22.202Z,3.30
2018-03-26T10:48:49.801Z,3.10
2018-03-26T10:51:17.434Z,3.17
2018-03-26T10:53:45.047Z,3.37
2018-03-26T10:56:12.660Z,2.97
2018-03-26T10:58:40.244Z,2.97
2018-03-26T11:01:07.925Z,2.40
2018-03-26T11:03:35.512Z,2.90
2018-03-26T11:06:03.887Z,3.00
2018-03-26T11:08:32.342Z,2.90
2018-03-26T11:11:00.007Z,3.10
2018-03-26T11:13:27.857Z,3.20
2018-03-26T11:15:55.669Z,2.90
2018-03-26T11:18:24.217Z,3.17
2018-03-26T11:20:51.980Z,3.80
2018-03-26T11:23:19.674Z,3.00
2018-03-26T11:25:48.063Z,3.40
2018-03-26T11:28:16.551Z,3.07
2018-03-26T11:30:44.922Z,3.73
2018-03-26T11:33:13.328Z,2.50
2018-03-26T11:35:41.144Z,3.00
2018-03-26T11:38:08.768Z,2.70
2018-03-26T11:40:36.449Z,2.63
2018-03-26T11:43:04.316Z,2.63
2018-03-26T11:45:31.978Z,2.60
2018-03-26T11:47:59.677Z,2.27
2018-03-26T11:50:28.191Z,3.10
2018-03-26T11:52:56.117Z,2.80
2018-03-26T11:55:23.896Z,2.80
2018-03-26T11:57:52.551Z,1.80
2018-03-26T12:00:20.699Z,2.10
2018-03-26T12:02:48.337Z,2.80
2018-03-26T12:05:15.930Z,2.37
2018-03-26T12:07:44.247Z,3.30
2018-03-26T12:10:11.881Z,2.50
2018-03-26T12:12:39.513Z,2.20
2018-03-26T12:15:07.109Z,2.20
2018-03-26T12:17:34.785Z,3.10
2018-03-26T12:20:15.001Z,2.93
2018-03-26T12:22:42.596Z,2.50
2018-03-26T12:25:15.716Z,2.63
2018-03-26T12:27:55.252Z,2.90
2018-03-26T12:30:24.715Z,2.17
2018-03-26T12:32:52.454Z,2.90
2018-03-26T12:35:32.004Z,3.50
2018-03-26T12:37:59.591Z,2.23
2018-03-26T12:40:39.124Z,3.50
2018-03-26T12:43:06.721Z,3.50
2018-03-26T12:45:46.860Z,3.60
2018-03-26T12:48:14.447Z,2.73
2018-03-26T12:50:54.044Z,2.80
2018-03-26T12:53:21.635Z,2.70
2018-03-26T12:55:50.026Z,2.90
2018-03-26T12:58:29.533Z,3.57
2018-03-26T13:01:08.943Z,2.57
2018-03-26T13:03:36.529Z,2.60
2018-03-26T13:06:04.155Z,3.27
2018-03-26T13:08:31.752Z,2.33
2018-03-26T13:11:00.132Z,2.50
2018-03-26T13:13:27.759Z,3.47
2018-03-26T13:15:55.373Z,3.80
2018-03-26T13:18:23.800Z,2.27
2018-03-26T13:20:51.522Z,3.10
2018-03-26T13:23:19.883Z,4.17
2018-03-26T13:25:48.274Z,3.50
2018-03-26T13:28:16.624Z,3.93
2018-03-26T13:30:44.253Z,3.43
2018-03-26T13:33:11.842Z,2.80
2018-03-26T13:35:39.429Z,3.00
2018-03-26T13:38:07.828Z,2.67
2018-03-26T13:40:35.416Z,3.93
2018-03-26T13:43:03.028Z,4.43
2018-03-26T13:45:31.384Z,4.50
2018-03-26T13:47:59.010Z,4.60
2018-03-26T13:50:26.596Z,4.30
2018-03-26T13:52:54.215Z,4.37
2018-03-26T13:55:21.821Z,4.73
2018-03-26T13:57:49.485Z,4.33
2018-03-26T14:00:17.084Z,4.90
2018-03-26T14:02:44.704Z,4.60
2018-03-26T14:05:12.304Z,3.73
2018-03-26T14:07:40.685Z,4.63
2018-03-26T14:10:20.004Z,4.50
2018-03-26T14:13:00.223Z,5.13
2018-03-26T14:15:39.688Z,5.50
2018-03-26T14:18:08.072Z,6.17
2018-03-26T14:20:37.135Z,5.50
2018-03-26T14:23:04.748Z,7.20
2018-03-26T14:25:33.131Z,5.77
2018-03-26T14:28:01.772Z,5.43
2018-03-26T14:30:29.412Z,6.17
2018-03-26T14:32:57.004Z,5.87
2018-03-26T14:38:18.244Z,11.90
2018-03-26T14:40:46.670Z,11.13
2018-03-26T14:43:14.347Z,13.27
2018-03-26T14:45:42.008Z,14.50
2018-03-26T14:48:09.660Z,16.83
2018-03-26T14:50:37.283Z,17.30
2018-03-26T14:53:06.227Z,16.93
2018-03-26T14:55:33.833Z,16.80
2018-03-26T14:58:02.218Z,17.67
2018-03-26T15:00:30.585Z,17.17
2018-03-26T15:02:58.992Z,19.07
2018-03-26T15:05:26.684Z,17.00
2018-03-26T15:07:54.283Z,16.93
2018-03-26T15:10:21.913Z,15.00
2018-03-26T15:12:49.511Z,15.40
2018-03-26T15:15:17.889Z,16.43
2018-03-26T15:17:46.284Z,14.60
2018-03-26T15:20:14.644Z,16.00
2018-03-26T15:22:43.030Z,9.83
2018-03-26T15:25:11.461Z,14.50
2018-03-26T15:27:39.079Z,13.80
2018-03-26T15:30:07.441Z,13.30
2018-03-26T15:32:35.075Z,13.37
2018-03-26T15:35:02.679Z,13.73
2018-03-26T15:37:31.050Z,12.67
2018-03-26T15:39:59.452Z,12.70
2018-03-26T15:42:27.052Z,13.20
2018-03-26T15:44:54.650Z,12.40
2018-03-26T15:47:23.046Z,12.90
2018-03-26T15:49:50.666Z,11.53
2018-03-26T15:52:18.264Z,13.20
2018-03-26T15:54:45.968Z,12.63
2018-03-26T15:57:13.566Z,8.57
2018-03-26T15:59:41.192Z,11.70
2018-03-26T16:02:08.301Z,12.43
2018-03-26T16:04:36.261Z,9.30
2018-03-26T16:07:04.686Z,11.53
2018-03-26T16:09:33.132Z,8.70
2018-03-26T16:12:00.727Z,9.40
2018-03-26T16:14:28.352Z,9.53
2018-03-26T16:16:55.966Z,10.47
2018-03-26T16:19:24.376Z,10.53
2018-03-26T16:21:52.743Z,9.67
2018-03-26T16:24:20.378Z,11.57
2018-03-26T16:26:47.981Z,8.57
2018-03-26T16:29:16.352Z,11.70
2018-03-26T16:31:44.753Z,12.37
2018-03-26T16:34:12.354Z,11.30
2018-03-26T16:36:39.980Z,10.30
2018-03-26T16:39:07.576Z,11.77
2018-03-26T16:41:47.823Z,9.23
2018-03-26T16:44:16.232Z,11.50
2018-03-26T16:46:45.716Z,8.57
2018-03-26T16:49:16.308Z,7.50
2018-03-26T16:51:46.344Z,11.07
2018-03-26T16:54:17.111Z,12.30
2018-03-26T16:56:48.002Z,10.80
2018-03-26T16:59:17.793Z,8.70
2018-03-26T17:01:47.958Z,10.27
2018-03-26T17:04:17.810Z,10.50
2018-03-26T17:06:47.990Z,9.47
2018-03-26T17:09:18.109Z,7.40
2018-03-26T17:11:46.651Z,10.63
2018-03-26T17:14:15.025Z,9.33
2018-03-26T17:16:43.427Z,9.27
2018-03-26T17:19:11.069Z,7.83
2018-03-26T17:21:39.457Z,10.77
2018-03-26T17:24:07.881Z,11.03
2018-03-26T17:26:35.524Z,10.30
2018-03-26T17:29:03.126Z,9.67
2018-03-26T17:31:30.739Z,8.63
2018-03-26T17:33:59.929Z,10.70
2018-03-26T17:36:29.160Z,10.90
2018-03-26T17:38:58.145Z,11.83
2018-03-26T17:41:28.077Z,11.00
2018-03-26T17:43:57.256Z,9.77
2018-03-26T17:46:26.169Z,9.07
2018-03-26T17:48:55.175Z,10.00
2018-03-26T17:51:24.837Z,8.60
2018-03-26T17:53:54.636Z,8.63
2018-03-26T17:56:24.152Z,9.60
2018-03-26T17:58:51.832Z,7.50
2018-03-26T18:01:19.430Z,8.17
2018-03-26T18:03:47.044Z,9.13
2018-03-26T18:06:14.646Z,9.73
2018-03-26T18:08:42.268Z,9.67
2018-03-26T18:11:09.865Z,9.90
2018-03-26T18:13:37.486Z,9.17
2018-03-26T18:16:05.095Z,11.43
2018-03-26T18:18:32.726Z,9.30
2018-03-26T18:21:00.333Z,9.83
2018-03-26T18:23:27.974Z,6.40
2018-03-26T18:25:55.581Z,10.67
2018-03-26T18:28:23.208Z,8.00
2018-03-26T18:30:51.573Z,8.67
2018-03-26T18:33:19.211Z,7.63
2018-03-26T18:35:46.806Z,8.10
2018-03-26T18:38:15.169Z,6.83
2018-03-26T18:40:42.796Z,8.20
2018-03-26T18:43:10.387Z,8.37
2018-03-26T18:45:38.018Z,10.97
2018-03-26T18:48:05.612Z,10.70
2018-03-26T18:50:34.004Z,6.87
2018-03-26T18:53:01.601Z,9.90
2018-03-26T18:55:29.221Z,9.07
2018-03-26T18:57:56.820Z,10.67
2018-03-26T19:00:24.436Z,11.47
2018-03-26T19:02:52.038Z,11.20
2018-03-26T19:05:19.665Z,9.40
2018-03-26T19:07:47.286Z,9.40
2018-03-26T19:10:14.919Z,7.67
2018-03-26T19:12:42.516Z,8.50
2018-03-26T19:15:10.928Z,7.10
2018-03-26T19:17:39.516Z,7.60
2018-03-26T19:20:07.144Z,9.87
2018-03-26T19:22:34.736Z,9.40
2018-03-26T19:25:02.369Z,9.80
2018-03-26T19:27:29.967Z,8.63
2018-03-26T19:29:58.633Z,11.10
2018-03-26T19:32:26.261Z,10.53
2018-03-26T19:34:53.864Z,8.23
2018-03-26T19:37:22.273Z,9.50
2018-03-26T19:39:49.870Z,10.33
2018-03-26T19:42:17.522Z,7.93
2018-03-26T19:44:45.136Z,8.07
2018-03-26T19:47:13.493Z,7.83
2018-03-26T19:49:41.114Z,7.10
2018-03-26T19:52:08.708Z,6.10
2018-03-26T19:54:36.405Z,7.97
2018-03-26T19:57:04.776Z,6.30
2018-03-26T19:59:33.198Z,6.10
2018-03-26T20:02:00.802Z,5.80
2018-03-26T20:04:29.985Z,6.67
2018-03-26T20:06:57.619Z,6.53
2018-03-26T20:09:25.257Z,7.10
2018-03-26T20:11:53.258Z,7.37
2018-03-26T20:14:20.912Z,7.00
2018-03-26T20:16:48.668Z,6.90
2018-03-26T20:19:16.284Z,6.83
2018-03-26T20:21:43.915Z,5.60
2018-03-26T20:24:12.058Z,6.07
2018-03-26T20:26:39.749Z,5.60
2018-03-26T20:29:07.613Z,7.03
2018-03-26T20:31:35.298Z,7.23
2018-03-26T20:34:03.675Z,7.00
2018-03-26T20:36:31.276Z,7.27
2018-03-26T20:38:58.947Z,5.40
2018-03-26T20:41:26.586Z,6.37
2018-03-26T20:43:55.097Z,6.77
2018-03-26T20:46:22.790Z,6.80
2018-03-26T20:48:50.423Z,6.57
2018-03-26T20:51:18.204Z,6.40
2018-03-26T20:53:45.830Z,6.87
2018-03-26T20:56:13.634Z,6.50
2018-03-26T20:58:41.513Z,7.67
2018-03-26T21:01:09.372Z,9.00
2018-03-26T21:03:37.157Z,9.20
2018-03-26T21:06:05.858Z,9.20
2018-03-26T21:08:35.648Z,7.60
2018-03-26T21:11:03.402Z,7.70
2018-03-26T21:13:31.104Z,6.23
2018-03-26T21:15:59.651Z,5.57
2018-03-26T21:18:27.450Z,5.90
2018-03-26T21:20:56.006Z,5.60
2018-03-26T21:23:23.789Z,5.80
2018-03-26T21:25:52.358Z,6.13
2018-03-26T21:28:20.218Z,6.50
2018-03-26T21:30:47.917Z,5.77
2018-03-26T21:33:16.275Z,5.90
2018-03-26T21:35:43.906Z,5.93
2018-03-26T21:38:11.573Z,5.10
2018-03-26T21:40:39.967Z,4.70
2018-03-26T21:43:07.589Z,4.90
2018-03-26T21:45:35.338Z,5.90
2018-03-26T21:48:02.953Z,6.30
2018-03-26T21:50:30.545Z,7.80
2018-03-26T21:52:58.940Z,4.80
2018-03-26T21:55:26.528Z,6.27
2018-03-26T21:57:54.163Z,5.60
2018-03-26T22:00:21.759Z,4.50
2018-03-26T22:02:49.371Z,6.30
2018-03-26T22:05:17.712Z,5.80
2018-03-26T22:07:45.325Z,5.97
2018-03-26T22:10:12.912Z,6.17
2018-03-26T22:12:40.529Z,5.00
2018-03-26T22:15:08.880Z,4.40
2018-03-26T22:17:38.057Z,6.10
2018-03-26T22:20:05.676Z,5.33
2018-03-26T22:22:33.294Z,4.20
2018-03-26T22:25:00.900Z,5.23
2018-03-26T22:27:28.528Z,6.53
2018-03-26T22:29:57.662Z,7.10
2018-03-26T22:32:25.351Z,7.37
2018-03-26T22:34:52.979Z,6.33
2018-03-26T22:37:20.578Z,5.87
2018-03-26T22:39:48.232Z,5.30
2018-03-26T22:42:15.824Z,7.60
2018-03-26T22:44:43.466Z,6.43
2018-03-26T22:47:11.056Z,7.43
2018-03-26T22:49:39.415Z,7.17
2018-03-26T22:52:07.016Z,7.03
2018-03-26T22:54:35.410Z,6.13
2018-03-26T22:57:02.999Z,5.23
2018-03-26T22:59:30.587Z,4.67
2018-03-26T23:01:59.722Z,4.27
2018-03-26T23:04:27.309Z,4.57
2018-03-26T23:06:54.900Z,6.10
2018-03-26T23:09:23.289Z,4.80
2018-03-26T23:11:51.649Z,7.07
2018-03-26T23:14:19.285Z,8.83
2018-03-26T23:16:46.876Z,7.67
2018-03-26T23:19:14.490Z,7.40
2018-03-26T23:21:42.079Z,7.90
2018-03-26T23:24:09.697Z,6.30
2018-03-26T23:26:37.290Z,5.23
2018-03-26T23:29:04.928Z,4.67
2018-03-26T23:31:32.508Z,7.07
2018-03-26T23:34:00.088Z,6.73
2018-03-26T23:36:27.697Z,5.27
2018-03-26T23:38:56.048Z,6.37
2018-03-26T23:41:23.673Z,4.90
2018-03-26T23:43:51.261Z,7.30
2018-03-26T23:46:18.851Z,6.20
2018-03-26T23:48:47.241Z,6.70
2018-03-26T23:51:14.820Z,4.90
2018-03-26T23:53:42.448Z,5.80
2018-03-26T23:56:10.796Z,6.50
2018-03-26T23:58:39.888Z,5.97
